Latest Coastal Weather Observations for Green Cape

IDN60701

Issued at 3:41 pm EST Saturday 24 August 2019 (issued every 10 minutes, with the page automatically refreshed every 10 minutes)

About coastal observations | Map of coastal stations | Coastal observations for NSW | Marine services | Other Formats
Station Details ID: 069137 Name: GREEN CAPE AWS Lat: -37.26 Lon: 150.05 Height: 19.4 m
Data from the previous 72 hours. | See also: Recent months at Green Cape
Date/Time
EST
Wind Sea
Height
m
Swell Vis
km
Cloud Weather Temp
°C
Press
hPa
Rain since
9am
mm
Dir  Spd
kts
Gust
kts
Height
m
Period
s
Dir
24/03:30pm NNE 11 13 - - - - - - - 16.5 1012.3 0.0
24/03:00pm NNE 10 11 - - - - - - - 17.1 1012.6 0.0
24/02:30pm NE 8 10 - - - - - - - 16.8 1012.8 0.0
24/02:00pm ENE 8 9 - - - - - - - 17.3 1013.0 0.0
24/01:30pm ENE 7 8 - - - - - - - 17.4 1013.4 0.0
24/01:00pm E 4 6 - - - - - - - 17.3 1014.0 0.0
24/12:30pm CALM 0 0 - - - - - - - 17.4 1014.5 0.0
24/12:00pm CALM 0 0 - - - - - - - 16.2 1015.1 0.0
24/11:30am SW 2 3 - - - - - - - 14.8 1015.7 0.0
24/11:00am SW 4 5 - - - - - - - 14.4 1016.2 0.0
24/10:30am SW 5 6 - - - - - - - 13.2 1016.5 0.0
24/10:00am WSW 7 8 - - - - - - - 12.0 1016.8 0.0
24/09:30am W 7 8 - - - - - - - 10.8 1016.9 0.0
24/09:00am W 9 10 - - - - - - - 9.1 1017.0 0.0
24/08:30am W 7 8 - - - - - - - 8.8 1017.0 0.0
24/08:00am W 7 8 - - - - - - - 8.3 1016.8 0.0
24/07:30am W 10 11 - - - - - - - 7.4 1016.8 0.0
24/07:00am W 8 10 - - - - - - - 7.7 1016.8 0.0
24/06:30am W 9 10 - - - - - - - 8.0 1016.4 0.0
24/06:00am W 9 11 - - - - - - - 8.4 1016.3 0.0
24/05:30am W 9 11 - - - - - - - 8.2 1016.3 0.0
24/05:00am W 7 9 - - - - - - - 8.7 1016.3 0.0
24/04:30am W 8 8 - - - - - - - 8.4 1016.5 0.0
24/04:00am W 8 10 - - - - - - - 8.3 1016.2 0.0
24/03:30am NW 1 6 - - - - - - - 9.4 1016.0 0.0
24/03:00am W 5 6 - - - - - - - 9.3 1016.0 0.0
24/02:30am W 8 9 - - - - - - - 9.1 1016.2 0.0
24/02:00am W 10 13 - - - - - - - 9.3 1016.7 0.0
24/01:30am W 8 9 - - - - - - - 9.8 1017.0 0.0
24/01:00am W 6 8 - - - - - - - 10.3 1017.5 0.0
24/12:30am W 6 7 - - - - - - - 9.8 1018.0 0.0
24/12:00am W 9 10 - - - - - - - 9.7 1018.3 0.0
 
Date/Time
EST
Wind Sea
Height
m
Swell Vis
km
Cloud Weather Temp
°C
Press
hPa
Rain since
9am
mm
Dir  Spd
kts
Gust
kts
Height
m
Period
s
Dir
23/11:30pm W 10 12 - - - - - - - 9.8 1018.4 0.0
23/11:00pm WNW 9 11 - - - - - - - 9.2 1018.5 0.0
23/10:30pm WNW 5 6 - - - - - - - 10.4 1018.5 0.0
23/10:00pm NW 5 7 - - - - - - - 11.2 1018.6 0.0
23/09:30pm N 11 15 - - - - - - - 12.3 1018.6 0.0
23/09:00pm N 14 17 - - - - - - - 12.4 1018.8 0.0
23/08:30pm N 13 16 - - - - - - - 12.5 1019.4 0.0
23/08:00pm N 22 25 - - - - - - - 13.6 1019.3 0.0
23/07:30pm N 24 27 - - - - - - - 13.4 1019.0 0.0
23/07:00pm N 23 26 - - - - - - - 13.3 1019.3 0.0
23/06:30pm N 19 22 - - - - - - - 13.3 1019.6 0.0
23/06:00pm N 19 21 - - - - - - - 13.0 1019.8 0.0
23/05:30pm NNE 18 21 - - - - - - - 12.9 1019.8 0.0
23/05:00pm NNE 18 21 - - - - - - - 12.9 1020.1 0.0
23/04:30pm NNE 17 21 - - - - - - - 13.0 1020.4 0.0
23/04:00pm NNE 17 19 - - - - - - - 13.1 1020.6 0.0
23/03:30pm NNE 16 19 - - - - - - - 13.1 1020.7 0.0
23/03:00pm NNE 15 18 - - - - - - - 13.4 1021.1 0.0
23/02:30pm NNE 16 19 - - - - - - - 13.6 1021.3 0.0
23/02:00pm NNE 15 19 - - - - - - - 13.8 1021.6 0.0
23/01:30pm NNE 14 17 - - - - - - - 13.8 1022.0 0.0
23/01:00pm NNE 14 17 - - - - - - - 14.0 1022.4 0.0
23/12:30pm NNE 14 16 - - - - - - - 13.7 1022.9 0.0
23/12:00pm NNE 10 14 - - - - - - - 13.5 1023.5 0.0
23/11:30am NNE 8 11 - - - - - - - 13.3 1024.1 0.0
23/11:00am SE 2 3 - - - - - - - 13.3 1024.7 0.0
23/10:30am WSW 5 7 - - - - - - - 11.1 1025.1 0.0
23/10:00am W 8 10 - - - - - - - 10.4 1025.4 0.0
23/09:30am W 12 14 - - - - - - - 9.4 1025.5 0.0
23/09:00am WNW 12 15 - - - - - - - 9.1 1025.7 0.6
23/08:30am W 14 17 - - - - - - - 8.3 1025.9 0.6
23/08:00am W 14 16 - - - - - - - 8.0 1025.6 0.6
23/07:30am W 14 17 - - - - - - - 8.1 1025.4 0.6
23/07:00am W 15 18 - - - - - - - 8.4 1025.0 0.6
23/06:30am WSW 15 20 - - - - - - - 9.0 1024.7 0.6
23/06:00am W 15 19 - - - - - - - 8.9 1024.4 0.6
23/05:30am WSW 14 19 - - - - - - - 9.4 1024.2 0.6
23/05:00am WSW 16 21 - - - - - - - 9.5 1023.9 0.6
23/04:30am WSW 16 23 - - - - - - - 9.6 1023.8 0.6
23/04:00am WSW 17 21 - - - - - - - 9.8 1023.6 0.6
23/03:30am WSW 19 23 - - - - - - - 9.9 1023.5 0.6
23/03:00am WSW 19 23 - - - - - - - 9.9 1023.5 0.6
23/02:30am WSW 19 24 - - - - - - - 10.0 1023.6 0.6
23/02:00am WSW 18 22 - - - - - - - 10.2 1023.7 0.6
23/01:30am WSW 20 24 - - - - - - - 10.2 1023.7 0.6
23/01:00am WSW 19 24 - - - - - - - 10.3 1023.8 0.6
23/12:30am WSW 19 25 - - - - - - - 10.1 1023.8 0.6
23/12:00am WSW 17 21 - - - - - - - 10.3 1023.6 0.6
 
Date/Time
EST
Wind Sea
Height
m
Swell Vis
km
Cloud Weather Temp
°C
Press
hPa
Rain since
9am
mm
Dir  Spd
kts
Gust
kts
Height
m
Period
s
Dir
22/11:30pm WSW 19 24 - - - - - - - 10.6 1023.5 0.6
22/11:00pm WSW 20 24 - - - - - - - 10.6 1023.3 0.6
22/10:30pm WSW 21 26 - - - - - - - 10.4 1023.2 0.6
22/10:00pm WSW 22 26 - - - - - - - 10.6 1023.1 0.6
22/09:30pm WSW 21 25 - - - - - - - 10.6 1022.8 0.6
22/09:00pm WSW 19 23 - - - - - - - 10.3 1022.7 0.6
22/08:30pm WSW 20 26 - - - - - - - 10.7 1022.5 0.6
22/08:00pm WSW 20 24 - - - - - - - 10.6 1022.1 0.6
22/07:30pm SW 23 27 - - - - - - - 10.7 1021.7 0.6
22/07:00pm SW 22 27 - - - - - - - 10.9 1021.4 0.6
22/06:30pm SW 24 28 - - - - - - - 11.0 1020.8 0.6
22/06:00pm SW 23 29 - - - - - - - 11.1 1020.4 0.6
22/05:30pm SW 29 34 - - - - - - - 11.5 1019.5 0.6
22/05:00pm SW 33 42 - - - - - - - 11.5 1018.8 0.6
22/04:51pm SW 32 42 - - - - - - - 11.5 1018.5 0.6
22/04:30pm SW 30 36 - - - - - - - 11.6 1018.3 0.6
22/04:00pm SW 36 44 - - - - - - - 11.6 1017.4 0.6
22/03:30pm SW 35 44 - - - - - - - 12.0 1016.5 0.6
22/03:15pm SW 32 42 - - - - - - - 12.3 1016.6 0.6
22/03:00pm SW 36 45 - - - - - - - 11.9 1016.3 0.6
22/02:34pm SW 35 45 - - - - - - - 12.2 1015.5 0.6
22/02:30pm SW 36 45 - - - - - - - 12.0 1015.6 0.6
22/02:00pm SW 36 47 - - - - - - - 11.7 1015.5 0.6
22/01:42pm SW 34 47 - - - - - - - 12.4 1014.9 0.6
22/01:30pm SW 34 42 - - - - - - - 12.4 1015.2 0.6
22/01:21pm SW 35 45 - - - - - - - 12.0 1015.3 0.6
22/01:00pm SW 36 46 - - - - - - - 12.5 1014.9 0.6
22/12:33pm SW 31 42 - - - - - - - 11.7 1014.9 0.6
22/12:30pm SW 30 36 - - - - - - - 11.6 1015.1 0.6
22/12:00pm SW 34 41 - - - - - - Recent precip. 9.9 1014.7 0.6
22/11:30am SW 36 48 - - - - - - - 12.5 1014.1 0.4
22/11:26am SW 34 48 - - - - - - - 12.4 1013.9 0.4
22/11:16am SW 37 49 - - - - - - - 12.2 1014.2 0.4
22/11:00am SW 42 54 - - - - - - - 10.8 1014.2 0.4
22/10:58am SW 45 56 - - - - - - - 10.4 1014.3 0.4
22/10:50am SW 39 56 - - - - - - - 10.9 1013.5 0.2
22/10:30am SW 37 48 - - - - - - - 11.3 1013.9 0.2
22/10:00am SW 37 49 - - - - - - - 12.1 1013.2 0.0
22/09:30am SW 39 51 - - - - - - - 11.6 1012.7 0.0
22/09:00am SW 37 53 - - - - - - - 11.2 1012.4 0.2
22/08:52am SW 37 53 - - - - - - - 11.7 1012.4 0.2
22/08:37am SW 29 39 - - - - - - - 11.4 1012.1 0.2
22/08:30am SW 30 39 - - - - - - - 11.2 1012.0 0.2
22/08:00am WSW 30 43 - - - - - - - 11.0 1011.5 0.2
22/07:57am WSW 30 38 - - - - - - - 11.3 1011.5 0.2
22/07:35am SW 38 48 - - - - - - - 11.1 1010.4 0.2
22/07:30am SW 38 48 - - - - - - - 11.1 1010.4 0.2
22/07:18am SW 36 51 - - - - - - - 10.7 1009.9 0.2
22/07:00am SW 39 48 - - - - - - - 10.6 1009.5 0.2
22/06:42am WSW 35 55 - - - - - - - 10.3 1009.1 0.2
22/06:30am SW 33 43 - - - - - - - 10.3 1009.6 0.2
22/06:00am WSW 35 46 - - - - - - - 10.7 1008.4 0.2
22/05:30am SW 42 52 - - - - - - - 10.6 1007.8 0.2
22/05:00am WSW 43 57 - - - - - - - 10.8 1006.7 0.2
22/04:30am WSW 44 62 - - - - - - - 11.5 1006.0 0.0
22/04:00am WSW 43 54 - - - - - - - 11.9 1005.7 0.0
22/03:34am WSW 36 48 - - - - - - - 14.4 1004.6 0.0
22/03:30am WSW 36 44 - - - - - - - 14.4 1004.5 0.0
22/03:20am WSW 39 48 - - - - - - - 14.6 1004.9 0.0
22/03:02am WSW 40 59 - - - - - - - 14.8 1004.5 0.0
22/03:00am WSW 39 55 - - - - - - - 14.8 1004.8 0.0
22/02:59am WSW 37 55 - - - - - - - 14.8 1004.7 0.0
22/02:30am WSW 32 45 - - - - - - - 14.4 1005.0 0.0
22/02:00am WSW 33 44 - - - - - - - 14.5 1005.3 0.0
22/01:40am WSW 29 40 - - - - - - - 14.8 1005.7 0.0
22/01:34am WSW 22 40 - - - - - - - 14.6 1005.4 0.0
22/01:33am WSW 21 40 - - - - - - - 14.5 1005.5 0.0
22/01:30am WSW 18 25 - - - - - - - 14.5 1005.9 0.0
22/01:09am W 21 33 - - - - - - - 14.6 1005.3 0.0
22/01:00am W 19 25 - - - - - - - 14.6 1005.5 0.0
22/12:30am W 20 27 - - - - - - - 14.6 1005.5 0.0
22/12:11am W 16 33 - - - - - - - 14.4 1005.7 0.0
22/12:10am W 16 33 - - - - - - - 14.5 1005.7 0.0
22/12:00am W 12 19 - - - - - - - 13.9 1006.2 0.0
 
Date/Time
EST
Wind Sea
Height
m
Swell Vis
km
Cloud Weather Temp
°C
Press
hPa
Rain since
9am
mm
Dir  Spd
kts
Gust
kts
Height
m
Period
s
Dir
21/11:30pm WNW 7 10 - - - - - - - 13.2 1006.8 0.0
21/11:00pm W 7 12 - - - - - - - 13.1 1007.2 0.0
21/10:30pm WSW 8 9 - - - - - - - 13.3 1008.2 0.0
21/10:00pm WSW 13 16 - - - - - - - 13.5 1008.7 0.0
21/09:30pm SW 15 19 - - - - - - - 13.4 1008.9 0.0
21/09:00pm WSW 19 23 - - - - - - - 13.6 1009.8 0.0
21/08:30pm WSW 25 30 - - - - - - - 13.7 1009.8 0.0
21/08:00pm SW 29 36 - - - - - - - 13.8 1009.9 0.0
21/07:30pm SW 27 34 - - - - - - - 13.9 1010.0 0.0
21/07:27pm SW 27 37 - - - - - - - 13.9 1010.0 0.0
21/07:00pm SW 29 35 - - - - - - - 14.1 1010.2 0.0
21/06:42pm WSW 26 37 - - - - - - - 14.2 1010.2 0.0
21/06:30pm WSW 28 37 - - - - - - - 14.2 1009.9 0.0
21/06:00pm SW 31 40 - - - - - - - 14.4 1009.9 0.0
21/05:51pm SW 33 44 - - - - - - - 14.4 1010.0 0.0
21/05:30pm SW 31 41 - - - - - - - 14.6 1009.8 0.0
21/05:00pm WSW 32 44 - - - - - - - 15.6 1009.1 0.0
21/04:32pm WSW 35 46 - - - - - - - 16.0 1009.0 0.0
21/04:30pm WSW 35 43 - - - - - - - 16.1 1009.1 0.0
21/04:09pm WSW 37 47 - - - - - - - 16.3 1009.2 0.0
21/04:00pm WSW 33 45 - - - - - - - 16.4 1009.2 0.0
21/03:47pm SW 27 37 - - - - - - - 16.4 1009.1 0.0

Other formats

Comma delimited format used in spreadsheet applications
http://www.bom.gov.au/fwo/IDN60701/IDN60701.94934.axf

JavaScript Object Notation format (JSON) in row-major order
http://www.bom.gov.au/fwo/IDN60701/IDN60701.94934.json

Data quality

Most of these data are generated automatically and are frequently updated. Quality checks on data are not normally performed. It is possible for incorrect values to appear. Refer to information at About Latest Weather Observations and please check the disclaimer before using these data.